Time;durP1;ratioP1;P1;durP2;ratioP2;P2;SDS_P1;SDS_P2;PMS_P1;PMS_P2;Temp;Humidity;BMP_temperature;BMP_pressure;BME280_temperature;BME280_humidity;BME280_pressure;Samples;Min_cycle;Max_cycle;Signal;HPM_P1;HPM_P2
2022/06/26 00:01:26;;;;;;;9.07;7.27;;;21.30;97.30;;;;;;4995065;28;20209;-87
2022/06/26 00:03:51;;;;;;;11.27;7.83;;;21.20;97.30;;;;;;5012210;28;20232;-87
2022/06/26 00:06:17;;;;;;;9.73;7.33;;;21.20;97.30;;;;;;4994118;28;20220;-86
2022/06/26 00:08:44;;;;;;;8.60;6.80;;;21.10;97.30;;;;;;5027653;28;20722;-86
2022/06/26 00:11:09;;;;;;;6.40;6.00;;;21.10;97.30;;;;;;5028922;28;20423;-87
2022/06/26 00:13:35;;;;;;;10.33;6.20;;;21.10;97.30;;;;;;5002250;28;20467;-88
2022/06/26 00:16:01;;;;;;;11.93;7.60;;;21.20;97.30;;;;;;4994134;28;20221;-88
2022/06/26 00:18:27;;;;;;;9.60;7.40;;;21.20;97.30;;;;;;4995055;28;20197;-87
2022/06/26 00:20:52;;;;;;;8.63;6.83;;;21.10;97.30;;;;;;4995850;28;20824;-87
2022/06/26 00:23:18;;;;;;;9.10;7.47;;;21.10;97.30;;;;;;4994125;28;20177;-88
2022/06/26 00:25:44;;;;;;;8.30;7.03;;;21.10;97.30;;;;;;5027251;28;20177;-87
2022/06/26 00:28:10;;;;;;;8.83;7.33;;;21.10;97.30;;;;;;4994809;28;20197;-87
2022/06/26 00:30:35;;;;;;;9.57;7.70;;;21.10;97.30;;;;;;4994459;28;20264;-87
2022/06/26 00:33:01;;;;;;;9.53;7.67;;;21.00;97.30;;;;;;4994518;28;20277;-87
2022/06/26 00:35:27;;;;;;;8.70;7.73;;;21.00;97.30;;;;;;4994534;28;20213;-87
2022/06/26 00:37:52;;;;;;;11.50;8.37;;;20.90;97.30;;;;;;5011991;28;20197;-87
2022/06/26 00:40:18;;;;;;;11.50;7.83;;;20.90;97.30;;;;;;4994537;28;20185;-87
2022/06/26 00:42:44;;;;;;;13.13;8.63;;;20.90;97.30;;;;;;5000019;28;20288;-87
2022/06/26 00:45:10;;;;;;;11.30;8.13;;;20.80;97.30;;;;;;4994416;28;20189;-86
2022/06/26 00:47:36;;;;;;;12.70;8.03;;;20.80;97.30;;;;;;4998089;28;20701;-86
2022/06/26 00:50:05;;;;;;;12.83;8.27;;;20.70;97.30;;;;;;4997812;28;20455;-86
2022/06/26 00:52:33;;;;;;;12.10;8.40;;;20.70;97.30;;;;;;4997861;28;20188;-86
2022/06/26 00:54:58;;;;;;;9.30;7.33;;;20.60;97.30;;;;;;4997945;28;20455;-87
2022/06/26 00:57:24;;;;;;;10.37;7.90;;;20.60;97.30;;;;;;5004624;28;20973;-88
2022/06/26 00:59:50;;;;;;;9.23;7.70;;;20.60;97.30;;;;;;5010532;28;20208;-87
2022/06/26 01:02:17;;;;;;;11.77;7.60;;;20.60;97.30;;;;;;4998173;28;20834;-88
2022/06/26 01:04:49;;;;;;;8.90;7.13;;;20.60;97.30;;;;;;4997732;28;20236;-88
2022/06/26 01:07:18;;;;;;;14.90;8.53;;;20.60;97.30;;;;;;4997769;28;20886;-88
2022/06/26 01:09:47;;;;;;;7.97;6.60;;;20.50;97.30;;;;;;4997983;28;20852;-88
2022/06/26 01:12:18;;;;;;;11.30;8.03;;;20.50;97.30;;;;;;4997594;28;20466;-88
2022/06/26 01:14:48;;;;;;;9.37;8.10;;;20.50;97.30;;;;;;4996192;28;20456;-88
2022/06/26 01:17:18;;;;;;;10.83;7.27;;;20.50;97.30;;;;;;4997953;28;20783;-88
2022/06/26 01:19:47;;;;;;;10.67;7.50;;;20.40;97.30;;;;;;5002269;28;20415;-87
2022/06/26 01:22:17;;;;;;;11.10;7.63;;;20.40;97.30;;;;;;5017367;28;20422;-88
2022/06/26 01:24:46;;;;;;;9.27;7.40;;;20.30;97.30;;;;;;5019034;28;20408;-88
2022/06/26 01:27:15;;;;;;;11.13;8.87;;;20.30;97.30;;;;;;4997217;28;20475;-87
2022/06/26 01:29:41;;;;;;;9.50;8.17;;;20.20;97.30;;;;;;5012874;28;20427;-87
2022/06/26 01:32:07;;;;;;;9.93;7.93;;;20.20;97.30;;;;;;5017479;28;20451;-87
2022/06/26 01:34:34;;;;;;;14.57;8.37;;;20.20;97.30;;;;;;5003951;28;20196;-87
2022/06/26 01:37:01;;;;;;;11.23;8.30;;;20.10;97.30;;;;;;4997519;28;20432;-87
2022/06/26 01:39:26;;;;;;;11.83;8.77;;;20.00;97.30;;;;;;4997119;28;20735;-87
2022/06/26 01:41:52;;;;;;;10.17;7.67;;;20.00;97.30;;;;;;4997372;28;20419;-86
2022/06/26 01:44:17;;;;;;;10.87;7.73;;;20.00;97.30;;;;;;4997052;28;20556;-87
2022/06/26 01:46:44;;;;;;;10.27;7.90;;;19.90;97.30;;;;;;4997070;28;20197;-87
2022/06/26 01:49:10;;;;;;;9.87;7.50;;;19.90;97.30;;;;;;4997475;28;20547;-87
2022/06/26 01:51:37;;;;;;;8.60;7.77;;;19.90;97.30;;;;;;4980975;28;20452;-87
2022/06/26 01:54:02;;;;;;;9.17;6.90;;;19.90;97.30;;;;;;4996661;28;20869;-87
2022/06/26 01:56:28;;;;;;;10.73;8.00;;;19.80;97.30;;;;;;4996019;28;20650;-87
2022/06/26 01:58:54;;;;;;;9.47;7.20;;;19.80;97.30;;;;;;4994847;28;20225;-87
2022/06/26 02:01:20;;;;;;;10.17;7.83;;;19.80;97.30;;;;;;4988659;28;20626;-87
2022/06/26 02:03:45;;;;;;;12.03;7.87;;;19.80;97.30;;;;;;4991483;28;20976;-87
2022/06/26 02:06:11;;;;;;;8.53;7.77;;;19.80;97.30;;;;;;4975285;28;20610;-87
2022/06/26 02:08:37;;;;;;;11.03;8.50;;;19.80;97.30;;;;;;4994727;28;20203;-87
2022/06/26 02:13:49;;;;;;;8.83;7.40;;;19.70;97.30;;;;;;5004377;28;20474;-87
2022/06/26 02:16:24;;;;;;;10.37;8.10;;;19.60;97.30;;;;;;4982552;28;20847;-87
2022/06/26 02:18:53;;;;;;;9.63;8.30;;;19.60;97.30;;;;;;4988530;28;20416;-86
2022/06/26 02:21:22;;;;;;;11.87;7.73;;;19.50;97.30;;;;;;4988070;28;20532;-87
2022/06/26 02:23:51;;;;;;;9.90;7.83;;;19.50;97.30;;;;;;4996565;28;20427;-87
2022/06/26 02:26:17;;;;;;;8.83;8.03;;;19.50;97.30;;;;;;4996410;28;20424;-87
2022/06/26 02:28:44;;;;;;;10.20;8.20;;;19.50;97.30;;;;;;4996094;28;20952;-87
2022/06/26 02:31:10;;;;;;;9.90;7.87;;;19.50;97.30;;;;;;4996353;28;20424;-88
2022/06/26 02:33:36;;;;;;;9.00;7.70;;;19.40;97.30;;;;;;5014538;28;20412;-86
2022/06/26 02:36:04;;;;;;;8.57;7.43;;;19.40;97.30;;;;;;4996228;28;20571;-86
2022/06/26 02:38:30;;;;;;;7.77;6.87;;;19.40;97.30;;;;;;4985832;28;20433;-87
2022/06/26 02:40:56;;;;;;;11.13;7.30;;;19.40;97.30;;;;;;4976742;28;20409;-87
2022/06/26 02:43:24;;;;;;;10.00;8.07;;;19.30;97.30;;;;;;4976664;28;20182;-87
2022/06/26 02:45:51;;;;;;;10.70;8.03;;;19.30;97.30;;;;;;4993717;28;20405;-87
2022/06/26 02:48:16;;;;;;;9.63;8.00;;;19.30;97.30;;;;;;4976296;28;20455;-87
2022/06/26 02:50:43;;;;;;;11.13;7.00;;;19.30;97.30;;;;;;4986604;28;20417;-87
2022/06/26 02:53:09;;;;;;;13.50;6.83;;;19.20;97.30;;;;;;4976062;28;20184;-87
2022/06/26 02:55:35;;;;;;;10.77;7.50;;;19.20;97.30;;;;;;4988731;28;20461;-87
2022/06/26 02:58:01;;;;;;;8.80;7.63;;;19.20;97.30;;;;;;4976228;28;20460;-87
2022/06/26 03:00:28;;;;;;;8.30;7.73;;;19.20;97.30;;;;;;4980163;28;20424;-87
2022/06/26 03:02:57;;;;;;;11.33;7.30;;;19.20;97.30;;;;;;4994918;28;20316;-87
2022/06/26 03:05:28;;;;;;;8.67;6.30;;;19.20;97.30;;;;;;4992065;28;20483;-86
2022/06/26 03:07:57;;;;;;;7.30;6.63;;;19.20;97.30;;;;;;4979434;28;20444;-87
2022/06/26 03:10:27;;;;;;;8.63;6.80;;;19.10;97.30;;;;;;4975735;28;20429;-86
2022/06/26 03:12:56;;;;;;;8.10;7.77;;;19.10;97.30;;;;;;4976270;28;20409;-87
2022/06/26 03:15:28;;;;;;;8.90;7.87;;;19.10;97.30;;;;;;4982510;28;20991;-86
2022/06/26 03:17:57;;;;;;;13.10;8.73;;;19.00;97.30;;;;;;4995533;28;20443;-87
2022/06/26 03:20:27;;;;;;;8.90;7.87;;;19.00;97.30;;;;;;4995462;28;20412;-86
2022/06/26 03:22:57;;;;;;;9.30;7.13;;;19.00;97.30;;;;;;4995186;28;20419;-86
2022/06/26 03:25:23;;;;;;;11.17;9.00;;;18.90;97.30;;;;;;4986423;28;20483;-87
2022/06/26 03:27:50;;;;;;;12.40;8.47;;;18.90;97.30;;;;;;4976212;28;20495;-86
2022/06/26 03:30:17;;;;;;;10.90;8.73;;;19.00;97.30;;;;;;4975917;28;20895;-87
2022/06/26 03:32:49;;;;;;;9.67;9.17;;;19.00;97.30;;;;;;4976152;28;20409;-87
2022/06/26 03:35:18;;;;;;;12.50;8.40;;;19.00;97.30;;;;;;4975956;28;20926;-87
2022/06/26 03:37:47;;;;;;;11.03;8.60;;;19.00;97.30;;;;;;4975571;28;20860;-86
2022/06/26 03:40:28;;;;;;;11.97;9.30;;;19.00;97.30;;;;;;4975593;28;20417;-87
2022/06/26 03:42:57;;;;;;;12.87;10.00;;;19.00;97.30;;;;;;4975313;28;20425;-87
2022/06/26 03:45:28;;;;;;;11.87;8.97;;;19.10;97.30;;;;;;4993228;28;20413;-86
2022/06/26 03:47:57;;;;;;;12.03;10.47;;;19.10;97.30;;;;;;4975510;28;20840;-86
2022/06/26 03:50:26;;;;;;;16.47;10.17;;;19.10;97.30;;;;;;4975653;28;21042;-87
2022/06/26 03:52:52;;;;;;;13.77;9.60;;;19.10;97.30;;;;;;4975579;28;20413;-88
2022/06/26 03:55:18;;;;;;;11.47;10.20;;;19.20;97.30;;;;;;4975458;28;21008;-87
2022/06/26 03:57:46;;;;;;;11.67;10.30;;;19.20;97.30;;;;;;4993247;28;20328;-87
2022/06/26 04:00:18;;;;;;;13.63;10.03;;;19.20;97.30;;;;;;4976022;28;20174;-83
2022/06/26 04:46:28;;;;;;;16.00;12.07;;;19.90;97.30;;;;;;5034054;28;20486;-90
2022/06/26 04:49:38;;;;;;;13.53;11.00;;;20.00;97.30;;;;;;5037307;28;20427;-91
2022/06/26 04:57:26;;;;;;;12.30;10.57;;;20.10;97.30;;;;;;5030159;28;20872;-84
2022/06/26 04:59:53;;;;;;;13.17;10.27;;;20.20;97.30;;;;;;5019225;28;20400;-84
2022/06/26 05:02:19;;;;;;;11.07;9.43;;;20.20;97.30;;;;;;5017417;28;20466;-85
2022/06/26 05:07:18;;;;;;;10.57;8.87;;;20.40;97.30;;;;;;5013833;28;20480;-86
2022/06/26 05:09:48;;;;;;;12.90;9.07;;;20.40;97.30;;;;;;4998017;28;20420;-87
2022/06/26 05:12:21;;;;;;;14.33;9.17;;;20.50;97.30;;;;;;4997838;28;20794;-87
2022/06/26 05:14:47;;;;;;;12.37;9.20;;;20.60;97.30;;;;;;5004074;28;20467;-87
2022/06/26 05:17:27;;;;;;;11.40;8.33;;;20.70;97.30;;;;;;5005067;28;20507;-86
2022/06/26 05:20:00;;;;;;;9.93;8.27;;;20.80;97.30;;;;;;4999523;28;20412;-87
2022/06/26 05:22:27;;;;;;;11.07;8.77;;;20.80;97.30;;;;;;4989963;28;20507;-87
2022/06/26 05:25:06;;;;;;;10.27;8.00;;;20.90;97.30;;;;;;4997203;28;20684;-87
2022/06/26 05:27:49;;;;;;;9.00;8.27;;;21.00;97.30;;;;;;4998733;28;20451;-83
2022/06/26 05:30:17;;;;;;;8.80;8.13;;;21.10;97.30;;;;;;4996675;28;20423;-84
2022/06/26 05:32:49;;;;;;;9.87;7.70;;;21.20;97.30;;;;;;4992761;28;20435;-84
2022/06/26 05:35:18;;;;;;;9.13;7.90;;;21.20;97.30;;;;;;4997636;28;20460;-85
2022/06/26 05:37:46;;;;;;;11.80;7.70;;;21.30;97.30;;;;;;4995618;28;20451;-88
2022/06/26 05:40:18;;;;;;;12.23;8.07;;;21.40;97.30;;;;;;4994093;28;20421;-88
2022/06/26 05:42:48;;;;;;;8.10;7.17;;;21.50;97.30;;;;;;5004616;28;20413;-85
2022/06/26 05:45:17;;;;;;;7.70;6.90;;;21.60;97.30;;;;;;5007078;28;20921;-86
2022/06/26 05:47:46;;;;;;;9.87;7.30;;;21.70;97.30;;;;;;4997476;28;20450;-86
2022/06/26 05:50:18;;;;;;;10.03;7.10;;;21.80;97.30;;;;;;4997544;28;20508;-86
2022/06/26 05:52:47;;;;;;;8.40;7.27;;;21.80;97.30;;;;;;4997500;28;20424;-85
2022/06/26 05:55:18;;;;;;;9.00;7.57;;;21.80;97.30;;;;;;4997226;28;20455;-86
2022/06/26 05:57:46;;;;;;;8.20;7.03;;;21.90;97.30;;;;;;4996476;28;20808;-87
2022/06/26 06:00:18;;;;;;;11.27;7.03;;;22.00;97.30;;;;;;4999007;28;20424;-86
2022/06/26 06:02:58;;;;;;;8.30;6.80;;;22.00;97.30;;;;;;5012652;23;20412;-91
2022/06/26 06:06:07;;;;;;;7.90;6.33;;;22.00;97.30;;;;;;5008126;28;20492;-91
2022/06/26 06:08:38;;;;;;;8.37;7.10;;;22.10;97.30;;;;;;5023767;28;20419;-91
2022/06/26 06:14:58;;;;;;;6.93;6.13;;;22.20;97.30;;;;;;5032581;23;20491;-86
2022/06/26 06:41:10;;;;;;;12.50;7.17;;;23.00;97.30;;;;;;5014335;28;21012;-88
2022/06/26 06:43:36;;;;;;;8.17;5.93;;;23.00;97.30;;;;;;4996417;28;20417;-90
2022/06/26 06:46:02;;;;;;;7.37;5.77;;;23.10;97.30;;;;;;4996816;28;20188;-89
2022/06/26 06:48:27;;;;;;;5.30;5.10;;;23.20;97.30;;;;;;4996743;28;20200;-89
2022/06/26 06:50:57;;;;;;;12.20;5.70;;;23.20;97.30;;;;;;5010642;28;20177;-89
2022/06/26 06:53:23;;;;;;;7.60;5.30;;;23.30;97.30;;;;;;4998302;28;20181;-89
2022/06/26 06:55:49;;;;;;;5.77;5.20;;;23.30;97.30;;;;;;5004695;28;21007;-89
2022/06/26 06:58:18;;;;;;;6.70;5.33;;;23.30;97.30;;;;;;4996226;28;20468;-91
2022/06/26 07:00:45;;;;;;;5.83;4.87;;;23.40;97.30;;;;;;5001890;28;20217;-90
2022/06/26 07:03:11;;;;;;;5.43;5.10;;;23.50;97.30;;;;;;4997237;28;20450;-90
2022/06/26 07:05:36;;;;;;;5.83;4.77;;;23.50;97.30;;;;;;4996218;28;20418;-90
2022/06/26 07:08:02;;;;;;;6.00;5.30;;;23.60;97.30;;;;;;4995707;28;20252;-90
2022/06/26 07:10:28;;;;;;;5.00;4.63;;;23.80;97.30;;;;;;5013767;28;20181;-90
2022/06/26 07:13:00;;;;;;;5.60;5.30;;;23.80;97.10;;;;;;4995945;28;20181;-90
2022/06/26 07:15:26;;;;;;;6.53;5.10;;;23.90;96.90;;;;;;4995968;28;20200;-90
2022/06/26 07:17:53;;;;;;;7.13;4.80;;;24.10;97.20;;;;;;4995219;28;20436;-90
2022/06/26 07:20:18;;;;;;;5.30;5.00;;;24.20;96.50;;;;;;4994529;28;20841;-90
2022/06/26 07:22:47;;;;;;;5.97;5.03;;;24.20;96.50;;;;;;5009599;28;20485;-90
2022/06/26 07:25:13;;;;;;;5.30;4.93;;;24.30;95.90;;;;;;5016421;28;20671;-90
2022/06/26 07:27:38;;;;;;;6.77;5.53;;;24.40;95.50;;;;;;5017066;28;20522;-90
2022/06/26 07:30:05;;;;;;;5.63;5.03;;;24.50;95.10;;;;;;5016616;28;20188;-89
2022/06/26 07:32:31;;;;;;;6.70;5.10;;;24.60;94.80;;;;;;5015873;28;20553;-88
2022/06/26 07:34:56;;;;;;;5.53;4.90;;;24.70;94.30;;;;;;5007719;28;21240;-88
2022/06/26 07:37:22;;;;;;;5.90;5.10;;;24.80;94.40;;;;;;4995969;28;20471;-88
2022/06/26 07:39:48;;;;;;;4.97;4.67;;;24.90;94.20;;;;;;4995951;28;20221;-87
2022/06/26 07:42:13;;;;;;;5.90;4.97;;;25.00;93.90;;;;;;5013642;28;20177;-89
2022/06/26 07:44:39;;;;;;;7.90;5.27;;;25.10;94.10;;;;;;5000525;28;20646;-88
2022/06/26 07:47:07;;;;;;;5.50;5.20;;;25.20;94.00;;;;;;4999157;28;20345;-89
2022/06/26 07:49:33;;;;;;;4.90;4.70;;;25.30;93.60;;;;;;4996106;28;20673;-87
2022/06/26 07:51:58;;;;;;;5.53;4.90;;;25.40;93.20;;;;;;4996167;28;20424;-86
2022/06/26 07:54:25;;;;;;;5.97;4.87;;;25.50;93.60;;;;;;5013955;28;20556;-87
2022/06/26 07:56:50;;;;;;;4.90;4.60;;;25.60;93.60;;;;;;5003555;28;20196;-86
2022/06/26 07:59:16;;;;;;;5.13;4.83;;;25.70;93.60;;;;;;5000040;28;20490;-86
2022/06/26 08:01:42;;;;;;;4.90;4.27;;;25.80;93.70;;;;;;5009606;28;20172;-85
2022/06/26 08:04:10;;;;;;;5.30;4.50;;;25.90;93.30;;;;;;5003427;28;20634;-86
2022/06/26 08:06:36;;;;;;;4.50;3.97;;;26.00;93.00;;;;;;4999035;28;20613;-86
2022/06/26 08:09:02;;;;;;;5.70;4.13;;;26.10;92.10;;;;;;4997167;28;20419;-86
2022/06/26 08:11:27;;;;;;;4.50;3.67;;;26.20;91.40;;;;;;4997621;28;20799;-86
2022/06/26 08:13:57;;;;;;;8.63;5.30;;;26.30;89.80;;;;;;5015151;28;20176;-86
2022/06/26 08:16:25;;;;;;;7.23;5.10;;;26.40;89.50;;;;;;4997527;28;20781;-85
2022/06/26 08:18:52;;;;;;;6.40;4.07;;;26.40;88.90;;;;;;4996778;28;20412;-85
2022/06/26 08:24:02;;;;;;;8.50;4.07;;;26.60;89.90;;;;;;5015296;28;20423;-85
2022/06/26 08:26:27;;;;;;;3.97;3.77;;;26.70;89.40;;;;;;4997213;28;20493;-85
2022/06/26 08:28:53;;;;;;;4.80;4.10;;;26.70;88.80;;;;;;4997251;28;20566;-85
2022/06/26 08:31:19;;;;;;;8.37;4.20;;;26.70;88.10;;;;;;4997369;28;20173;-85
2022/06/26 08:33:45;;;;;;;4.03;3.90;;;26.80;88.20;;;;;;4996992;28;20181;-85
2022/06/26 08:36:10;;;;;;;4.57;4.20;;;26.80;88.60;;;;;;5014553;28;20312;-85
2022/06/26 08:38:36;;;;;;;5.00;4.33;;;26.90;89.60;;;;;;4988201;28;20292;-86
2022/06/26 08:41:02;;;;;;;4.67;3.90;;;27.00;87.60;;;;;;4993447;28;20665;-85
2022/06/26 08:43:28;;;;;;;4.00;3.80;;;27.10;87.10;;;;;;4996498;28;20173;-85
2022/06/26 08:45:54;;;;;;;3.63;3.43;;;27.20;85.70;;;;;;4996551;28;20511;-85
2022/06/26 08:48:24;;;;;;;4.90;3.53;;;27.30;85.50;;;;;;4997832;28;20193;-85
2022/06/26 08:50:49;;;;;;;4.87;3.90;;;27.40;85.00;;;;;;5009402;28;20442;-85
2022/06/26 08:53:19;;;;;;;4.20;3.80;;;27.50;85.70;;;;;;5002860;28;20447;-85
2022/06/26 08:55:49;;;;;;;5.13;4.00;;;27.50;86.10;;;;;;5010632;28;20290;-86
2022/06/26 08:58:17;;;;;;;4.00;3.80;;;27.50;86.50;;;;;;5007566;28;20444;-85
2022/06/26 09:00:46;;;;;;;3.67;3.47;;;27.50;86.00;;;;;;5008444;28;20470;-85
2022/06/26 09:03:34;;;;;;;5.13;4.00;;;27.50;86.20;;;;;;5009826;28;20452;-86
2022/06/26 09:06:03;;;;;;;4.60;2.93;;;27.60;86.20;;;;;;4998283;28;20453;-85
2022/06/26 09:08:30;;;;;;;2.70;2.60;;;27.60;85.50;;;;;;4989000;28;20463;-87
2022/06/26 09:10:57;;;;;;;3.53;2.90;;;27.70;84.60;;;;;;5000877;28;20503;-85
2022/06/26 09:13:23;;;;;;;3.00;2.80;;;27.80;82.90;;;;;;5002940;28;20474;-85
2022/06/26 09:15:50;;;;;;;3.50;3.30;;;27.90;80.00;;;;;;4998434;28;20530;-85
2022/06/26 09:18:16;;;;;;;3.47;2.80;;;28.10;80.50;;;;;;4998407;28;20444;-84
2022/06/26 09:20:54;;;;;;;3.43;3.10;;;28.20;81.70;;;;;;4995262;28;20428;-85
2022/06/26 09:23:20;;;;;;;3.13;2.90;;;28.30;81.20;;;;;;4994216;28;20625;-85
2022/06/26 09:25:46;;;;;;;3.93;2.90;;;28.40;80.80;;;;;;4996431;28;20471;-85
2022/06/26 09:28:19;;;;;;;3.00;2.80;;;28.50;80.50;;;;;;4994538;28;20834;-86
2022/06/26 09:31:03;;;;;;;9.27;2.80;;;28.60;80.20;;;;;;4999780;28;20493;-85
2022/06/26 09:33:34;;;;;;;3.27;3.07;;;28.70;79.50;;;;;;5018089;28;20412;-86
2022/06/26 09:36:01;;;;;;;3.23;2.93;;;28.70;78.90;;;;;;4999130;28;20550;-86
2022/06/26 09:38:37;;;;;;;3.27;2.90;;;28.70;79.10;;;;;;4990044;28;20467;-85
2022/06/26 09:41:08;;;;;;;6.00;3.27;;;28.80;78.90;;;;;;4996362;28;20503;-85
2022/06/26 09:43:38;;;;;;;3.27;2.93;;;28.90;78.20;;;;;;4993714;28;20456;-85
2022/06/26 09:46:09;;;;;;;4.63;2.80;;;29.00;78.10;;;;;;4994499;28;20717;-86
2022/06/26 09:48:47;;;;;;;4.90;2.73;;;29.10;79.20;;;;;;4996222;28;20436;-86
2022/06/26 09:51:28;;;;;;;2.90;2.70;;;29.20;78.70;;;;;;4996448;28;20840;-86
2022/06/26 09:53:57;;;;;;;4.13;3.10;;;29.20;78.10;;;;;;4992250;28;20420;-86
2022/06/26 09:56:31;;;;;;;2.93;2.80;;;29.10;77.20;;;;;;4996466;28;20466;-86
2022/06/26 09:59:00;;;;;;;4.40;3.20;;;29.20;78.00;;;;;;4996515;28;20412;-85
2022/06/26 10:07:01;;;;;;;3.10;2.90;;;29.10;77.20;;;;;;5014495;28;20447;-85
2022/06/26 10:09:36;;;;;;;3.20;2.77;;;29.00;77.10;;;;;;4995458;28;20418;-86
2022/06/26 10:12:09;;;;;;;3.57;2.70;;;29.00;76.50;;;;;;4982807;28;20451;-85
2022/06/26 10:14:47;;;;;;;3.20;3.00;;;29.00;77.00;;;;;;4995938;28;20456;-86
2022/06/26 10:17:27;;;;;;;4.17;3.07;;;29.10;78.80;;;;;;4982841;28;20428;-86
2022/06/26 10:20:00;;;;;;;3.07;2.87;;;29.30;78.50;;;;;;4995338;28;20422;-87
2022/06/26 10:22:40;;;;;;;2.80;2.60;;;29.40;79.30;;;;;;4996251;28;20424;-86
2022/06/26 10:25:27;;;;;;;4.87;2.80;;;29.60;78.40;;;;;;4996243;28;20511;-86
2022/06/26 10:27:58;;;;;;;2.87;2.67;;;29.80;78.80;;;;;;4995316;28;20478;-86
2022/06/26 10:30:26;;;;;;;3.00;2.87;;;30.00;77.90;;;;;;4995422;28;20438;-86
2022/06/26 10:33:10;;;;;;;5.67;3.67;;;30.10;77.50;;;;;;5012686;28;20444;-86
2022/06/26 10:35:41;;;;;;;3.07;2.90;;;30.20;76.50;;;;;;4995041;28;20460;-86
2022/06/26 10:38:24;;;;;;;3.30;2.63;;;30.20;76.50;;;;;;5012430;28;20428;-86
2022/06/26 10:43:57;;;;;;;2.90;2.70;;;30.10;75.80;;;;;;5013074;28;20427;-86
2022/06/26 10:46:22;;;;;;;2.50;2.30;;;30.20;75.10;;;;;;4995325;28;20423;-85
2022/06/26 10:48:55;;;;;;;2.83;2.60;;;30.20;74.60;;;;;;4995221;28;20428;-86
2022/06/26 10:51:26;;;;;;;3.07;2.87;;;30.30;76.40;;;;;;4994785;28;20689;-86
2022/06/26 10:53:52;;;;;;;6.13;3.20;;;30.50;76.90;;;;;;4994352;28;20495;-86
2022/06/26 10:56:17;;;;;;;2.80;2.60;;;30.60;77.00;;;;;;4994889;28;20460;-87
2022/06/26 10:58:45;;;;;;;3.33;2.80;;;30.60;75.60;;;;;;4995105;28;20650;-86
2022/06/26 11:01:12;;;;;;;2.60;2.40;;;30.60;75.00;;;;;;4994591;28;20189;-87
2022/06/26 11:03:40;;;;;;;2.80;2.63;;;30.60;74.70;;;;;;4994743;28;20514;-86
2022/06/26 11:06:07;;;;;;;2.70;2.50;;;30.70;74.70;;;;;;4994977;28;20454;-85
2022/06/26 11:08:42;;;;;;;3.63;2.70;;;30.80;74.70;;;;;;4994489;28;20440;-87
2022/06/26 11:11:14;;;;;;;2.70;2.50;;;31.00;75.50;;;;;;4994395;28;20451;-87
2022/06/26 11:13:50;;;;;;;3.00;2.80;;;31.00;74.90;;;;;;5005350;28;20434;-86
2022/06/26 11:16:16;;;;;;;2.73;2.60;;;31.10;74.20;;;;;;5000561;28;20464;-86
2022/06/26 11:18:42;;;;;;;2.93;2.77;;;31.10;71.80;;;;;;5001987;28;20826;-86
2022/06/26 11:21:07;;;;;;;2.77;2.60;;;31.10;72.00;;;;;;5012654;28;20424;-87
2022/06/26 11:23:35;;;;;;;2.80;2.50;;;31.10;73.00;;;;;;4999850;28;20173;-86
2022/06/26 11:26:04;;;;;;;2.87;2.70;;;31.10;72.90;;;;;;4994772;28;20582;-86
2022/06/26 11:28:35;;;;;;;2.80;2.60;;;31.20;73.20;;;;;;4982073;28;20447;-86
2022/06/26 11:31:03;;;;;;;3.57;2.50;;;31.30;73.00;;;;;;4994408;28;20562;-86
2022/06/26 11:33:31;;;;;;;2.80;2.60;;;31.30;72.30;;;;;;4994954;28;21016;-87
2022/06/26 11:36:09;;;;;;;2.93;2.73;;;31.30;72.10;;;;;;4994657;28;20463;-87
2022/06/26 11:38:35;;;;;;;3.33;2.90;;;31.40;73.00;;;;;;4994731;28;20444;-87
2022/06/26 11:41:03;;;;;;;3.40;2.70;;;31.50;74.80;;;;;;4994101;28;20474;-87
2022/06/26 11:43:30;;;;;;;2.60;2.40;;;31.60;75.00;;;;;;5002572;28;20431;-87
2022/06/26 11:45:57;;;;;;;3.10;2.80;;;31.80;75.00;;;;;;4994395;28;20459;-87
2022/06/26 11:48:23;;;;;;;2.73;2.37;;;31.80;74.40;;;;;;5012077;28;20452;-87
2022/06/26 11:50:52;;;;;;;3.30;3.10;;;31.70;73.50;;;;;;4981620;28;20418;-87
2022/06/26 11:53:27;;;;;;;2.67;2.50;;;31.50;73.70;;;;;;4994285;28;20208;-87
2022/06/26 11:55:59;;;;;;;2.77;2.57;;;31.50;74.50;;;;;;4993907;28;20506;-87
2022/06/26 11:58:27;;;;;;;2.83;2.63;;;31.60;75.30;;;;;;4993827;28;20436;-86
2022/06/26 12:01:13;;;;;;;2.73;2.53;;;31.60;74.80;;;;;;4993588;28;20945;-87
2022/06/26 12:03:49;;;;;;;2.80;2.60;;;31.60;73.30;;;;;;5009714;23;20506;-86
2022/06/26 12:06:40;;;;;;;2.50;2.30;;;31.50;72.70;;;;;;5013627;28;20411;-86
2022/06/26 12:09:20;;;;;;;3.00;2.80;;;31.40;73.00;;;;;;5010254;28;20681;-85
2022/06/26 12:11:50;;;;;;;2.67;2.47;;;31.30;72.50;;;;;;5010439;28;20411;-85
2022/06/26 12:14:18;;;;;;;2.70;2.50;;;31.20;72.30;;;;;;5011996;28;20431;-86
2022/06/26 12:16:48;;;;;;;3.80;2.60;;;31.10;72.50;;;;;;5010093;28;20543;-86
2022/06/26 12:19:14;;;;;;;3.10;2.63;;;31.00;73.70;;;;;;5010475;28;20956;-85
2022/06/26 12:21:40;;;;;;;3.10;2.90;;;30.90;74.00;;;;;;5011358;28;20424;-86
2022/06/26 12:24:13;;;;;;;2.63;2.50;;;30.80;73.80;;;;;;5010718;28;20486;-85
2022/06/26 12:26:40;;;;;;;2.60;2.40;;;30.80;74.00;;;;;;5011164;28;20189;-85
2022/06/26 12:29:11;;;;;;;2.73;2.53;;;30.70;74.50;;;;;;5010383;28;20416;-85
2022/06/26 12:31:37;;;;;;;3.07;2.87;;;30.60;73.70;;;;;;5009871;28;20425;-85
2022/06/26 12:34:04;;;;;;;2.70;2.50;;;30.50;73.90;;;;;;5009912;28;20767;-85
2022/06/26 12:36:31;;;;;;;3.67;2.70;;;30.40;74.20;;;;;;5009742;28;20984;-86
2022/06/26 12:38:57;;;;;;;3.10;2.63;;;30.30;75.60;;;;;;5009889;28;20511;-85
2022/06/26 12:41:23;;;;;;;3.83;2.90;;;30.30;76.60;;;;;;5011712;28;20928;-85
2022/06/26 12:43:51;;;;;;;3.13;2.57;;;30.30;75.80;;;;;;5013869;28;20462;-85
2022/06/26 12:46:18;;;;;;;2.93;2.77;;;30.20;76.10;;;;;;5013501;28;20216;-85
2022/06/26 12:48:44;;;;;;;2.77;2.57;;;30.20;76.10;;;;;;5014608;28;20444;-85
2022/06/26 12:51:10;;;;;;;3.10;2.90;;;30.30;77.00;;;;;;5015890;28;20466;-86
2022/06/26 12:53:35;;;;;;;3.13;2.50;;;30.40;77.10;;;;;;5015574;28;20185;-85
2022/06/26 12:56:02;;;;;;;3.57;2.80;;;30.60;75.00;;;;;;5013183;28;20467;-85
2022/06/26 12:58:28;;;;;;;2.77;2.57;;;30.80;74.20;;;;;;5013287;28;20201;-85
2022/06/26 13:00:53;;;;;;;2.93;2.73;;;31.00;73.20;;;;;;5013712;28;20420;-86
2022/06/26 13:03:20;;;;;;;2.50;2.40;;;31.20;72.90;;;;;;5014264;28;20467;-85
2022/06/26 13:05:45;;;;;;;3.27;2.53;;;31.30;71.30;;;;;;5022892;28;20528;-85
2022/06/26 13:08:12;;;;;;;3.00;2.80;;;31.30;70.90;;;;;;5014292;28;20758;-85
2022/06/26 13:10:39;;;;;;;2.50;2.30;;;31.30;71.70;;;;;;4993759;28;20186;-85
2022/06/26 13:13:05;;;;;;;2.87;2.67;;;31.30;71.70;;;;;;4993564;28;20461;-85
2022/06/26 13:15:30;;;;;;;2.97;2.77;;;31.40;73.30;;;;;;4995212;28;20507;-85
2022/06/26 13:17:56;;;;;;;2.90;2.70;;;31.60;74.00;;;;;;5006353;28;20409;-86
2022/06/26 13:20:22;;;;;;;2.87;2.67;;;31.90;72.30;;;;;;5011449;28;20192;-86
2022/06/26 13:22:47;;;;;;;2.50;2.30;;;31.90;71.40;;;;;;5006674;28;20174;-85
2022/06/26 13:25:13;;;;;;;2.83;2.60;;;31.90;69.20;;;;;;5012589;28;20181;-85
2022/06/26 13:27:39;;;;;;;3.23;2.63;;;32.00;69.70;;;;;;5005180;28;20255;-85
2022/06/26 13:30:06;;;;;;;4.50;3.17;;;32.10;68.50;;;;;;5012790;28;20232;-86
2022/06/26 13:32:32;;;;;;;3.03;2.83;;;32.30;70.50;;;;;;5013331;28;20212;-85
2022/06/26 13:34:58;;;;;;;2.70;2.50;;;32.50;70.10;;;;;;5007774;28;20530;-85
2022/06/26 13:37:23;;;;;;;2.60;2.47;;;32.50;70.30;;;;;;5012313;28;20638;-85
2022/06/26 13:39:49;;;;;;;2.63;2.43;;;32.40;69.20;;;;;;5006351;28;20255;-86
2022/06/26 13:42:15;;;;;;;3.00;2.80;;;32.40;69.30;;;;;;5012593;28;20647;-85
2022/06/26 13:44:40;;;;;;;2.50;2.30;;;32.40;69.20;;;;;;5004819;28;20185;-85
2022/06/26 13:47:06;;;;;;;3.03;2.50;;;32.40;68.10;;;;;;5012875;28;20847;-85
2022/06/26 13:49:31;;;;;;;2.40;2.20;;;32.40;67.70;;;;;;5013078;28;20181;-85
2022/06/26 13:51:57;;;;;;;2.70;2.30;;;32.40;67.30;;;;;;5007059;28;20244;-85
2022/06/26 13:54:22;;;;;;;2.70;2.50;;;32.40;66.70;;;;;;5012583;28;20177;-85
2022/06/26 13:56:48;;;;;;;2.70;2.37;;;32.30;66.50;;;;;;5005795;28;20197;-86
2022/06/26 13:59:14;;;;;;;2.43;2.23;;;32.20;67.20;;;;;;5012424;28;20180;-85
2022/06/26 14:01:39;;;;;;;2.60;2.40;;;32.10;67.00;;;;;;5005296;28;20197;-85
2022/06/26 14:04:05;;;;;;;2.63;2.43;;;32.00;67.50;;;;;;5009273;28;20256;-85
2022/06/26 14:06:31;;;;;;;2.53;2.33;;;32.00;68.60;;;;;;4993031;28;20193;-85
2022/06/26 14:08:57;;;;;;;2.73;2.53;;;32.20;70.30;;;;;;4994429;28;20794;-85
2022/06/26 14:11:23;;;;;;;2.63;2.47;;;32.40;67.60;;;;;;4990830;28;20202;-85
2022/06/26 14:13:49;;;;;;;2.63;2.47;;;32.50;67.50;;;;;;4999049;28;20518;-86
2022/06/26 14:16:16;;;;;;;2.53;2.33;;;32.70;67.20;;;;;;5012055;28;20197;-85
2022/06/26 14:18:42;;;;;;;2.67;2.20;;;33.00;67.40;;;;;;5012173;28;20511;-85
2022/06/26 14:21:07;;;;;;;2.83;2.63;;;33.00;66.30;;;;;;5011948;28;20523;-86
2022/06/26 14:26:18;;;;;;;3.90;2.50;;;33.10;68.40;;;;;;5013502;28;20554;-86